createdAt,value
2018-11-05T00:00:25.898Z,8.20
2018-11-05T00:02:55.618Z,8.20
2018-11-05T00:05:25.025Z,8.20
2018-11-05T00:07:54.718Z,8.20
2018-11-05T00:10:23.878Z,8.20
2018-11-05T00:12:53.565Z,8.20
2018-11-05T00:15:22.787Z,8.20
2018-11-05T00:17:51.802Z,8.10
2018-11-05T00:20:21.528Z,8.10
2018-11-05T00:22:50.966Z,8.10
2018-11-05T00:25:20.443Z,8.10
2018-11-05T00:27:50.557Z,8.00
2018-11-05T00:30:19.864Z,8.10
2018-11-05T00:32:49.072Z,8.10
2018-11-05T00:35:18.414Z,8.10
2018-11-05T00:37:47.646Z,8.00
2018-11-05T00:40:17.285Z,8.00
2018-11-05T00:42:46.772Z,8.00
2018-11-05T00:45:16.121Z,8.00
2018-11-05T00:47:45.291Z,8.00
2018-11-05T00:50:15.590Z,8.00
2018-11-05T00:52:44.804Z,8.00
2018-11-05T00:55:14.313Z,8.00
2018-11-05T00:57:44.004Z,8.00
2018-11-05T01:00:16.208Z,8.00
2018-11-05T01:02:45.515Z,7.90
2018-11-05T01:05:16.038Z,8.00
2018-11-05T01:07:45.668Z,8.00
2018-11-05T01:10:15.983Z,7.90
2018-11-05T01:12:45.305Z,7.80
2018-11-05T01:15:16.037Z,7.70
2018-11-05T01:17:45.347Z,7.70
2018-11-05T01:20:15.768Z,7.70
2018-11-05T01:22:45.251Z,7.60
2018-11-05T01:25:14.438Z,7.60
2018-11-05T01:27:43.930Z,7.60
2018-11-05T01:30:13.724Z,7.60
2018-11-05T01:32:42.992Z,7.60
2018-11-05T01:35:13.463Z,7.40
2018-11-05T01:37:42.587Z,7.50
2018-11-05T01:40:15.461Z,7.20
2018-11-05T01:42:44.956Z,7.20
2018-11-05T01:45:14.775Z,7.10
2018-11-05T01:47:44.536Z,7.00
2018-11-05T01:50:15.451Z,7.00
2018-11-05T01:52:45.280Z,6.90
2018-11-05T01:55:14.626Z,6.70
2018-11-05T01:57:43.771Z,6.60
2018-11-05T02:00:15.667Z,6.60
2018-11-05T02:02:45.379Z,6.80
2018-11-05T02:05:14.800Z,6.80
2018-11-05T02:07:45.577Z,6.50
2018-11-05T02:10:16.368Z,6.50
2018-11-05T02:12:45.846Z,6.50
2018-11-05T02:15:15.804Z,6.50
2018-11-05T02:17:46.402Z,6.50
2018-11-05T02:20:17.286Z,6.40
2018-11-05T02:22:46.831Z,6.40
2018-11-05T02:25:16.348Z,6.50
2018-11-05T02:27:45.755Z,6.70
2018-11-05T02:30:19.622Z,6.80
2018-11-05T02:32:49.150Z,6.90
2018-11-05T02:35:18.887Z,6.80
2018-11-05T02:37:48.701Z,6.70
2018-11-05T02:40:20.236Z,6.60
2018-11-05T02:42:50.213Z,6.60
2018-11-05T02:45:20.634Z,6.70
2018-11-05T02:47:49.699Z,6.70
2018-11-05T02:50:19.132Z,6.70
2018-11-05T02:52:48.517Z,6.70
2018-11-05T02:55:17.694Z,6.70
2018-11-05T02:57:47.011Z,6.70
2018-11-05T03:00:17.762Z,6.70
2018-11-05T03:02:47.366Z,6.70
2018-11-05T03:05:18.730Z,6.50
2018-11-05T03:07:48.333Z,6.40
2018-11-05T03:10:17.535Z,6.40
2018-11-05T03:12:47.550Z,6.30
2018-11-05T03:15:18.172Z,6.30
2018-11-05T03:17:47.411Z,6.30
2018-11-05T03:20:16.980Z,6.30
2018-11-05T03:22:46.196Z,6.30
2018-11-05T03:25:15.369Z,6.40
2018-11-05T03:27:44.938Z,6.40
2018-11-05T03:30:18.736Z,6.40
2018-11-05T03:32:48.128Z,6.50
2018-11-05T03:35:17.501Z,6.40
2018-11-05T03:37:47.211Z,6.40
2018-11-05T03:40:16.580Z,6.50
2018-11-05T03:42:46.005Z,6.40
2018-11-05T03:45:16.808Z,6.40
2018-11-05T03:47:46.381Z,6.40
2018-11-05T03:50:16.746Z,6.30
2018-11-05T03:52:46.588Z,6.30
2018-11-05T03:55:17.073Z,6.40
2018-11-05T03:57:46.371Z,6.30
2018-11-05T04:00:16.796Z,6.20
2018-11-05T04:02:46.020Z,6.10
2018-11-05T04:05:15.169Z,6.10
2018-11-05T04:07:44.525Z,6.00
2018-11-05T04:10:14.506Z,5.90
2018-11-05T04:12:43.773Z,5.90
2018-11-05T04:15:13.140Z,5.80
2018-11-05T04:17:42.317Z,5.80
2018-11-05T04:20:14.016Z,5.80
2018-11-05T04:22:44.018Z,5.90
2018-11-05T04:25:14.551Z,5.90
2018-11-05T04:27:43.990Z,5.90
2018-11-05T04:30:14.349Z,5.80
2018-11-05T04:32:43.804Z,5.90
2018-11-05T04:35:13.140Z,5.90
2018-11-05T04:37:42.350Z,6.00
2018-11-05T04:40:12.068Z,6.00
2018-11-05T04:42:41.249Z,6.20
2018-11-05T04:45:12.297Z,6.10
2018-11-05T04:47:42.325Z,6.10
2018-11-05T04:50:12.357Z,6.10
2018-11-05T04:52:42.957Z,6.20
2018-11-05T04:55:12.085Z,6.20
2018-11-05T04:57:41.277Z,6.30
2018-11-05T05:00:16.958Z,6.40
2018-11-05T05:02:46.559Z,6.50
2018-11-05T05:05:16.299Z,6.50
2018-11-05T05:07:45.579Z,6.60
2018-11-05T05:10:14.761Z,6.60
2018-11-05T05:12:44.144Z,6.70
2018-11-05T05:15:13.521Z,6.80
2018-11-05T05:17:42.847Z,6.80
2018-11-05T05:20:14.379Z,6.90
2018-11-05T05:22:44.101Z,6.90
2018-11-05T05:25:13.512Z,7.00
2018-11-05T05:27:43.006Z,7.00
2018-11-05T05:30:15.892Z,7.10
2018-11-05T05:32:45.805Z,7.10
2018-11-05T05:35:15.047Z,7.10
2018-11-05T05:37:44.431Z,7.10
2018-11-05T05:40:13.431Z,7.20
2018-11-05T05:42:43.104Z,7.20
2018-11-05T05:45:12.940Z,7.20
2018-11-05T05:47:42.552Z,7.20
2018-11-05T05:50:14.592Z,7.20
2018-11-05T05:52:44.966Z,7.30
2018-11-05T05:55:14.247Z,7.30
2018-11-05T05:57:43.898Z,7.40
2018-11-05T06:00:14.480Z,7.50
2018-11-05T06:02:43.939Z,7.80
2018-11-05T06:05:14.844Z,8.20
2018-11-05T06:07:44.417Z,8.40
2018-11-05T06:10:14.916Z,8.30
2018-11-05T06:12:44.570Z,8.30
2018-11-05T06:15:15.934Z,8.40
2018-11-05T06:17:45.093Z,8.50
2018-11-05T06:20:16.588Z,8.50
2018-11-05T06:22:46.252Z,8.50
2018-11-05T06:25:15.212Z,8.50
2018-11-05T06:27:44.493Z,8.60
2018-11-05T06:30:16.612Z,8.60
2018-11-05T06:32:46.410Z,8.60
2018-11-05T06:35:15.799Z,8.60
2018-11-05T06:37:44.955Z,8.60
2018-11-05T06:40:16.645Z,8.50
2018-11-05T06:42:46.263Z,8.40
2018-11-05T06:45:17.932Z,8.30
2018-11-05T06:47:47.459Z,8.30
2018-11-05T06:50:24.958Z,8.40
2018-11-05T06:52:54.355Z,8.50
2018-11-05T06:55:23.569Z,8.50
2018-11-05T06:57:53.043Z,8.50
2018-11-05T07:00:24.212Z,8.50
2018-11-05T07:02:53.610Z,8.40
2018-11-05T07:05:22.936Z,8.40
2018-11-05T07:07:52.279Z,8.30
2018-11-05T07:10:22.113Z,8.20
2018-11-05T07:12:51.424Z,8.10
2018-11-05T07:15:20.875Z,8.00
2018-11-05T07:17:50.546Z,8.00
2018-11-05T07:20:20.724Z,8.00
2018-11-05T07:22:50.752Z,8.10
2018-11-05T07:25:20.833Z,8.10
2018-11-05T07:27:50.396Z,8.20
2018-11-05T07:30:20.691Z,8.20
2018-11-05T07:32:51.033Z,8.30
2018-11-05T07:35:21.002Z,8.30
2018-11-05T07:37:50.306Z,8.40
2018-11-05T07:40:19.845Z,8.40
2018-11-05T07:42:50.518Z,8.40
2018-11-05T07:45:22.033Z,8.40
2018-11-05T07:47:51.485Z,8.40
2018-11-05T07:50:22.153Z,8.40
2018-11-05T07:52:51.922Z,8.50
2018-11-05T07:55:21.024Z,8.60
2018-11-05T07:57:50.897Z,8.70
2018-11-05T08:00:25.409Z,8.70
2018-11-05T08:02:55.883Z,8.80
2018-11-05T08:05:25.348Z,9.00
2018-11-05T08:07:59.080Z,9.10
2018-11-05T08:10:28.444Z,9.10
2018-11-05T08:12:57.919Z,9.20
2018-11-05T08:15:27.229Z,9.20
2018-11-05T08:17:56.300Z,9.20
2018-11-05T08:20:25.598Z,9.30
2018-11-05T08:22:55.000Z,9.30
2018-11-05T08:25:24.190Z,9.20
2018-11-05T08:27:53.625Z,9.20
2018-11-05T08:30:24.025Z,9.20
2018-11-05T08:32:53.437Z,9.30
2018-11-05T08:35:22.869Z,9.30
2018-11-05T08:37:52.436Z,9.20
2018-11-05T08:40:23.268Z,9.30
2018-11-05T08:42:53.035Z,9.30
2018-11-05T08:45:23.421Z,9.40
2018-11-05T08:47:52.220Z,9.50
2018-11-05T08:50:22.866Z,9.50
2018-11-05T08:52:51.993Z,9.60
2018-11-05T08:55:23.293Z,9.60
2018-11-05T08:57:52.584Z,9.70
2018-11-05T09:00:26.839Z,9.80
2018-11-05T09:02:56.408Z,9.90
2018-11-05T09:05:25.623Z,9.90
2018-11-05T09:07:56.099Z,9.90
2018-11-05T09:10:25.948Z,10.00
2018-11-05T09:12:54.984Z,10.00
2018-11-05T09:15:24.333Z,10.10
2018-11-05T09:17:53.535Z,10.10
2018-11-05T09:20:22.551Z,10.10
2018-11-05T09:22:52.303Z,10.10
2018-11-05T09:25:21.657Z,10.10
2018-11-05T09:27:51.095Z,10.20
2018-11-05T09:30:21.615Z,10.30
2018-11-05T09:32:51.004Z,10.30
2018-11-05T09:35:21.176Z,10.40
2018-11-05T09:37:50.302Z,10.40
2018-11-05T09:40:20.683Z,10.50
2018-11-05T09:42:50.230Z,10.50
2018-11-05T09:45:21.999Z,10.60
2018-11-05T09:47:51.277Z,10.60
2018-11-05T09:50:20.575Z,10.70
2018-11-05T09:52:49.640Z,10.70
2018-11-05T09:55:19.166Z,10.80
2018-11-05T09:57:48.379Z,10.80
2018-11-05T10:00:19.952Z,10.80
2018-11-05T10:02:54.988Z,10.90
2018-11-05T10:05:24.113Z,10.90
2018-11-05T10:07:53.047Z,11.00
2018-11-05T10:10:22.893Z,11.00
2018-11-05T10:12:51.993Z,11.20
2018-11-05T10:15:21.448Z,11.20
2018-11-05T10:17:50.521Z,11.20
2018-11-05T10:20:21.605Z,11.30
2018-11-05T10:22:50.760Z,11.40
2018-11-05T10:25:20.118Z,11.40
2018-11-05T10:27:49.818Z,11.40
2018-11-05T10:30:20.832Z,11.50
2018-11-05T10:32:50.248Z,11.50
2018-11-05T10:35:19.816Z,11.60
2018-11-05T10:37:49.398Z,11.60
2018-11-05T10:40:19.672Z,11.70
2018-11-05T10:42:49.019Z,11.70
2018-11-05T10:45:19.032Z,11.80
2018-11-05T10:47:48.215Z,11.80
2018-11-05T10:50:18.591Z,11.90
2018-11-05T10:52:48.961Z,11.90
2018-11-05T10:55:18.359Z,12.00
2018-11-05T10:57:48.068Z,12.00
2018-11-05T11:00:23.184Z,12.00
2018-11-05T11:02:58.709Z,12.10
2018-11-05T11:05:28.790Z,12.20
2018-11-05T11:07:58.752Z,12.30
2018-11-05T11:10:28.540Z,12.40
2018-11-05T11:12:57.935Z,12.50
2018-11-05T11:15:26.936Z,12.70
2018-11-05T11:17:56.666Z,12.70
2018-11-05T11:20:25.677Z,12.80
2018-11-05T11:22:54.841Z,12.80
2018-11-05T11:25:23.837Z,12.90
2018-11-05T11:27:53.134Z,12.90
2018-11-05T11:30:22.104Z,12.90
2018-11-05T11:32:52.473Z,13.00
2018-11-05T11:35:21.635Z,13.00
2018-11-05T11:37:50.965Z,13.10
2018-11-05T11:40:21.351Z,13.10
2018-11-05T11:42:50.721Z,13.10
2018-11-05T11:45:20.899Z,13.10
2018-11-05T11:47:50.371Z,13.20
2018-11-05T11:50:19.896Z,13.30
2018-11-05T11:52:49.449Z,13.40
2018-11-05T11:55:20.011Z,13.50
2018-11-05T11:57:49.008Z,13.60
2018-11-05T12:00:20.485Z,13.80
2018-11-05T12:02:50.154Z,13.80
2018-11-05T12:05:19.629Z,13.90
2018-11-05T12:07:48.774Z,13.90
2018-11-05T12:10:19.670Z,13.80
2018-11-05T12:12:49.640Z,13.80
2018-11-05T12:15:19.496Z,13.80
2018-11-05T12:17:49.816Z,13.90
2018-11-05T12:20:20.054Z,13.80
2018-11-05T12:22:49.789Z,13.90
2018-11-05T12:25:19.250Z,13.90
2018-11-05T12:27:48.658Z,13.90
2018-11-05T12:30:19.492Z,14.00
2018-11-05T12:32:49.362Z,14.10
2018-11-05T12:35:18.691Z,14.30
2018-11-05T12:37:48.924Z,14.40
2018-11-05T12:40:18.851Z,14.50
2018-11-05T12:42:48.878Z,14.50
2018-11-05T12:45:18.144Z,14.50
2018-11-05T12:47:47.535Z,14.40
2018-11-05T12:50:18.689Z,14.50
2018-11-05T12:52:48.562Z,14.40
2018-11-05T12:55:17.557Z,14.40
2018-11-05T12:57:47.340Z,14.40
2018-11-05T13:00:19.252Z,14.40
2018-11-05T13:02:53.680Z,14.40
2018-11-05T13:05:23.292Z,14.50
2018-11-05T13:07:52.331Z,14.50
2018-11-05T13:10:21.728Z,14.50
2018-11-05T13:12:51.085Z,14.50
2018-11-05T13:15:20.328Z,14.50
2018-11-05T13:17:49.316Z,14.60
2018-11-05T13:20:19.596Z,14.60
2018-11-05T13:22:48.862Z,14.60
2018-11-05T13:25:18.091Z,14.80
2018-11-05T13:27:50.131Z,14.90
2018-11-05T13:30:19.509Z,14.90
2018-11-05T13:32:48.892Z,15.00
2018-11-05T13:35:19.457Z,15.00
2018-11-05T13:37:49.334Z,15.20
2018-11-05T13:40:20.245Z,15.20
2018-11-05T13:42:49.606Z,15.20
2018-11-05T13:45:19.398Z,15.30
2018-11-05T13:47:48.985Z,15.10
2018-11-05T13:50:18.348Z,15.20
2018-11-05T13:52:47.456Z,15.20
2018-11-05T13:55:18.999Z,15.20
2018-11-05T13:57:48.931Z,15.20
2018-11-05T14:00:20.101Z,15.20
2018-11-05T14:02:49.730Z,15.20
2018-11-05T14:05:18.945Z,15.20
2018-11-05T14:07:48.057Z,15.20
2018-11-05T14:10:19.544Z,15.20
2018-11-05T14:12:49.031Z,15.10
2018-11-05T14:15:18.187Z,15.20
2018-11-05T14:17:47.572Z,15.00
2018-11-05T14:20:17.999Z,15.10
2018-11-05T14:22:47.175Z,15.00
2018-11-05T14:25:17.518Z,15.10
2018-11-05T14:27:48.131Z,15.00
2018-11-05T14:30:17.140Z,15.00
2018-11-05T14:32:47.440Z,15.00
2018-11-05T14:35:16.400Z,14.90
2018-11-05T14:37:45.736Z,14.80
2018-11-05T14:40:16.250Z,14.80
2018-11-05T14:42:45.525Z,14.90
2018-11-05T14:45:15.880Z,14.90
2018-11-05T14:47:45.897Z,14.80
2018-11-05T14:50:16.912Z,14.70
2018-11-05T14:52:46.709Z,14.70
2018-11-05T14:55:17.474Z,14.60
2018-11-05T14:57:47.554Z,14.60
2018-11-05T15:00:19.768Z,14.70
2018-11-05T15:02:49.689Z,14.70
2018-11-05T15:05:18.882Z,14.70
2018-11-05T15:07:48.985Z,14.60
2018-11-05T15:10:20.237Z,14.40
2018-11-05T15:12:49.221Z,14.30
2018-11-05T15:15:18.757Z,14.20
2018-11-05T15:17:48.142Z,14.10
2018-11-05T15:20:19.474Z,14.00
2018-11-05T15:22:48.715Z,14.00
2018-11-05T15:25:18.222Z,14.00
2018-11-05T15:27:47.217Z,14.00
2018-11-05T15:30:19.228Z,13.90
2018-11-05T15:32:48.733Z,13.80
2018-11-05T15:35:18.299Z,13.70
2018-11-05T15:37:47.599Z,13.50
2018-11-05T15:40:18.177Z,13.50
2018-11-05T15:42:47.615Z,13.40
2018-11-05T15:45:18.448Z,13.40
2018-11-05T15:47:47.928Z,13.40
2018-11-05T15:50:18.947Z,13.30
2018-11-05T15:52:48.523Z,13.40
2018-11-05T15:55:17.643Z,13.20
2018-11-05T15:57:46.936Z,13.20
2018-11-05T16:00:21.425Z,13.20
2018-11-05T16:02:52.000Z,13.10
2018-11-05T16:05:21.111Z,13.10
2018-11-05T16:07:50.095Z,13.10
2018-11-05T16:10:19.109Z,13.10
2018-11-05T16:12:48.353Z,13.10
2018-11-05T16:15:17.894Z,13.20
2018-11-05T16:17:47.222Z,13.10
2018-11-05T16:20:17.763Z,13.10
2018-11-05T16:22:47.584Z,13.10
2018-11-05T16:25:16.933Z,13.00
2018-11-05T16:27:46.225Z,13.00
2018-11-05T16:30:16.885Z,13.00
2018-11-05T16:32:46.545Z,12.90
2018-11-05T16:35:16.132Z,12.90
2018-11-05T16:37:45.178Z,13.00
2018-11-05T16:40:15.583Z,12.90
2018-11-05T16:42:45.559Z,12.90
2018-11-05T16:45:15.201Z,12.90
2018-11-05T16:47:44.644Z,12.80
2018-11-05T16:50:17.612Z,12.90
2018-11-05T16:52:46.741Z,12.80
2018-11-05T16:55:16.004Z,12.80
2018-11-05T16:57:45.205Z,12.90
2018-11-05T17:00:14.799Z,12.80
2018-11-05T17:02:44.796Z,12.80
2018-11-05T17:05:14.015Z,12.70
2018-11-05T17:07:43.203Z,12.80
2018-11-05T17:10:13.576Z,12.70
2018-11-05T17:12:43.290Z,12.70
2018-11-05T17:15:13.466Z,12.70
2018-11-05T17:17:43.290Z,12.60
2018-11-05T17:20:14.175Z,12.60
2018-11-05T17:22:43.781Z,12.60
2018-11-05T17:25:13.358Z,12.60
2018-11-05T17:27:42.876Z,12.60
2018-11-05T17:30:16.144Z,12.50
2018-11-05T17:32:45.476Z,12.50
2018-11-05T17:35:15.282Z,12.50
2018-11-05T17:37:45.623Z,12.50
2018-11-05T17:40:16.197Z,12.40
2018-11-05T17:42:45.063Z,12.40
2018-11-05T17:45:16.045Z,12.20
2018-11-05T17:47:45.013Z,12.20
2018-11-05T17:50:15.768Z,12.20
2018-11-05T17:52:45.156Z,12.10
2018-11-05T17:55:14.547Z,12.00
2018-11-05T17:57:44.870Z,12.00
2018-11-05T18:00:18.319Z,12.10
2018-11-05T18:02:47.476Z,12.10
2018-11-05T18:05:16.606Z,12.10
2018-11-05T18:07:45.681Z,12.10
2018-11-05T18:10:14.922Z,12.00
2018-11-05T18:12:43.981Z,11.90
2018-11-05T18:15:13.448Z,11.90
2018-11-05T18:17:43.687Z,11.90
2018-11-05T18:20:13.765Z,11.80
2018-11-05T18:22:42.945Z,11.70
2018-11-05T18:25:13.533Z,11.60
2018-11-05T18:27:42.758Z,11.80
2018-11-05T18:30:12.887Z,11.80
2018-11-05T18:32:41.822Z,11.80
2018-11-05T18:35:15.072Z,11.80
2018-11-05T18:37:45.639Z,11.70
2018-11-05T18:40:15.532Z,11.70
2018-11-05T18:42:45.361Z,11.70
2018-11-05T18:45:15.003Z,11.70
2018-11-05T18:47:44.097Z,11.70
2018-11-05T18:50:15.478Z,11.80
2018-11-05T18:52:44.889Z,11.80
2018-11-05T18:55:15.000Z,11.80
2018-11-05T18:57:44.118Z,11.70
2018-11-05T19:00:20.358Z,11.70
2018-11-05T19:02:50.084Z,11.70
2018-11-05T19:05:19.939Z,11.70
2018-11-05T19:07:49.103Z,11.60
2018-11-05T19:10:18.255Z,11.50
2018-11-05T19:12:47.885Z,11.50
2018-11-05T19:15:17.453Z,11.40
2018-11-05T19:17:47.477Z,11.30
2018-11-05T19:20:16.991Z,11.30
2018-11-05T19:22:46.592Z,11.20
2018-11-05T19:25:16.595Z,11.10
2018-11-05T19:27:46.027Z,11.10
2018-11-05T19:30:19.689Z,11.10
2018-11-05T19:32:49.112Z,11.00
2018-11-05T19:35:18.099Z,11.00
2018-11-05T19:37:47.402Z,11.00
2018-11-05T19:40:17.349Z,10.90
2018-11-05T19:42:47.609Z,10.90
2018-11-05T19:45:17.789Z,10.90
2018-11-05T19:47:47.132Z,11.00
2018-11-05T19:50:17.653Z,11.00
2018-11-05T19:52:47.514Z,11.00
2018-11-05T19:55:17.442Z,11.00
2018-11-05T19:57:47.232Z,10.90
2018-11-05T20:00:19.304Z,10.90
2018-11-05T20:02:48.973Z,10.80
2018-11-05T20:05:18.249Z,10.80
2018-11-05T20:07:48.334Z,10.80
2018-11-05T20:10:17.470Z,10.90
2018-11-05T20:12:47.216Z,10.80
2018-11-05T20:15:16.598Z,10.80
2018-11-05T20:17:46.945Z,10.80
2018-11-05T20:20:17.254Z,10.90
2018-11-05T20:22:46.366Z,10.90
2018-11-05T20:25:15.247Z,10.90
2018-11-05T20:27:44.552Z,10.90
2018-11-05T20:30:16.796Z,11.00
2018-11-05T20:32:47.250Z,10.90
2018-11-05T20:35:16.492Z,10.90
2018-11-05T20:37:47.791Z,10.80
2018-11-05T20:40:17.840Z,10.90
2018-11-05T20:42:48.054Z,10.90
2018-11-05T20:45:17.916Z,10.70
2018-11-05T20:47:47.070Z,10.80
2018-11-05T20:50:17.007Z,10.80
2018-11-05T20:52:46.481Z,10.80
2018-11-05T20:55:16.634Z,10.70
2018-11-05T20:57:45.672Z,10.70
2018-11-05T21:00:16.198Z,10.70
2018-11-05T21:02:45.438Z,10.60
2018-11-05T21:05:14.710Z,10.70
2018-11-05T21:07:44.428Z,10.80
2018-11-05T21:10:14.849Z,10.70
2018-11-05T21:12:44.456Z,10.70
2018-11-05T21:15:21.174Z,10.70
2018-11-05T21:17:51.093Z,10.70
2018-11-05T21:20:20.318Z,10.70
2018-11-05T21:22:50.094Z,10.70
2018-11-05T21:25:19.204Z,10.70
2018-11-05T21:27:48.948Z,10.70
2018-11-05T21:30:20.514Z,10.70
2018-11-05T21:32:49.515Z,10.70
2018-11-05T21:35:19.534Z,10.60
2018-11-05T21:37:48.725Z,10.60
2018-11-05T21:40:18.374Z,10.60
2018-11-05T21:42:47.232Z,10.40
2018-11-05T21:45:16.847Z,10.30
2018-11-05T21:47:46.439Z,10.30
2018-11-05T21:50:16.932Z,10.20
2018-11-05T21:52:46.305Z,10.20
2018-11-05T21:55:15.176Z,10.30
2018-11-05T21:57:45.371Z,10.20
2018-11-05T22:00:16.134Z,10.20
2018-11-05T22:02:50.122Z,10.10
2018-11-05T22:05:19.264Z,10.10
2018-11-05T22:07:51.899Z,10.10
2018-11-05T22:10:21.256Z,10.00
2018-11-05T22:12:51.534Z,10.10
2018-11-05T22:15:20.459Z,10.20
2018-11-05T22:17:49.780Z,10.10
2018-11-05T22:20:19.052Z,10.10
2018-11-05T22:22:48.397Z,10.10
2018-11-05T22:25:17.516Z,10.00
2018-11-05T22:27:46.345Z,9.90
2018-11-05T22:30:15.856Z,10.00
2018-11-05T22:32:45.842Z,10.00
2018-11-05T22:35:15.577Z,10.00
2018-11-05T22:37:45.042Z,10.00
2018-11-05T22:40:14.908Z,10.00
2018-11-05T22:42:44.284Z,9.90
2018-11-05T22:45:14.496Z,9.90
2018-11-05T22:47:44.735Z,9.80
2018-11-05T22:50:13.759Z,9.70
2018-11-05T22:52:43.194Z,9.70
2018-11-05T22:55:12.420Z,9.60
2018-11-05T22:57:41.693Z,9.60
2018-11-05T23:00:19.533Z,9.50
2018-11-05T23:02:53.753Z,9.50
2018-11-05T23:05:23.129Z,9.50
2018-11-05T23:07:53.210Z,9.50
2018-11-05T23:10:22.591Z,9.40
2018-11-05T23:12:51.795Z,9.40
2018-11-05T23:15:21.089Z,9.20
2018-11-05T23:17:50.544Z,9.20
2018-11-05T23:20:19.616Z,9.10
2018-11-05T23:22:48.699Z,9.10
2018-11-05T23:25:18.074Z,9.10
2018-11-05T23:27:48.149Z,9.00
2018-11-05T23:30:17.381Z,9.00
2018-11-05T23:32:46.432Z,9.00
2018-11-05T23:35:15.727Z,9.00
2018-11-05T23:37:44.928Z,9.00
2018-11-05T23:40:14.336Z,9.00
2018-11-05T23:42:43.665Z,8.90
2018-11-05T23:45:15.005Z,9.00
2018-11-05T23:47:44.296Z,9.20
2018-11-05T23:50:13.732Z,9.20
2018-11-05T23:52:42.929Z,8.90
2018-11-05T23:55:12.750Z,8.80
2018-11-05T23:57:41.730Z,8.70
